Time;durP1;ratioP1;P1;durP2;ratioP2;P2;SDS_P1;SDS_P2;PMS_P1;PMS_P2;Temp;Humidity;BMP_temperature;BMP_pressure;BME280_temperature;BME280_humidity;BME280_pressure;Samples;Min_cycle;Max_cycle;Signal;HPM_P1;HPM_P2
2021/04/01 00:01:52;;;;;;;8.57;4.23;;;10.80;95.40;;;;;;477711;248;28279;-73
2021/04/01 00:03:54;;;;;;;7.70;3.37;;;10.80;95.50;;;;;;474780;249;28695;-73
2021/04/01 00:05:55;;;;;;;8.20;3.97;;;10.80;95.60;;;;;;477739;249;28787;-73
2021/04/01 00:07:56;;;;;;;7.33;3.53;;;10.80;95.50;;;;;;475252;250;28584;-73
2021/04/01 00:09:57;;;;;;;7.10;3.60;;;10.80;95.90;;;;;;477758;248;28253;-73
2021/04/01 00:11:59;;;;;;;6.83;3.73;;;10.80;96.10;;;;;;474837;249;28010;-73
2021/04/01 00:14:03;;;;;;;5.60;3.83;;;10.70;96.00;;;;;;477784;249;28021;-73
2021/04/01 00:16:01;;;;;;;11.63;4.10;;;10.70;96.40;;;;;;482929;246;28448;-73
2021/04/01 00:18:02;;;;;;;10.23;3.70;;;10.70;96.40;;;;;;477734;249;28253;-73
2021/04/01 00:20:04;;;;;;;6.70;3.57;;;10.60;96.00;;;;;;474786;250;28152;-73
2021/04/01 00:22:05;;;;;;;7.00;3.47;;;10.60;96.70;;;;;;477754;249;28231;-73
2021/04/01 00:24:06;;;;;;;4.47;3.97;;;10.50;97.20;;;;;;475270;250;28753;-73
2021/04/01 00:26:07;;;;;;;8.33;3.90;;;10.50;96.90;;;;;;477814;248;28542;-73
2021/04/01 00:28:09;;;;;;;7.13;3.57;;;10.50;97.10;;;;;;474930;249;28630;-73
2021/04/01 00:30:10;;;;;;;5.27;3.77;;;10.50;97.20;;;;;;477780;249;28974;-73
2021/04/01 00:32:12;;;;;;;4.50;3.47;;;10.50;97.60;;;;;;475267;250;28086;-73
2021/04/01 00:34:12;;;;;;;9.37;4.27;;;10.50;97.60;;;;;;477747;248;28220;-73
2021/04/01 00:36:14;;;;;;;5.17;3.20;;;10.40;97.30;;;;;;474831;249;28358;-73
2021/04/01 00:38:15;;;;;;;5.47;3.20;;;10.40;97.50;;;;;;477826;249;28231;-73
2021/04/01 00:40:16;;;;;;;7.73;3.60;;;10.40;97.80;;;;;;475341;250;28046;-73
2021/04/01 00:42:17;;;;;;;6.63;3.43;;;10.40;97.90;;;;;;477888;248;28157;-73
2021/04/01 00:44:19;;;;;;;7.60;3.80;;;10.40;98.40;;;;;;474951;250;28165;-74
2021/04/01 00:46:20;;;;;;;6.10;3.43;;;10.30;98.40;;;;;;477926;249;28143;-73
2021/04/01 00:48:21;;;;;;;8.70;3.63;;;10.30;98.60;;;;;;475445;250;28002;-73
2021/04/01 00:50:22;;;;;;;7.33;3.07;;;10.30;98.10;;;;;;477928;248;28451;-73
2021/04/01 00:52:24;;;;;;;6.47;3.63;;;10.30;98.60;;;;;;474933;249;29297;-73
2021/04/01 00:54:25;;;;;;;11.80;3.70;;;10.30;98.30;;;;;;477812;249;28684;-73
2021/04/01 00:56:26;;;;;;;9.57;3.70;;;10.30;98.90;;;;;;475310;250;28256;-73
2021/04/01 00:58:28;;;;;;;6.90;3.20;;;10.30;99.00;;;;;;477837;248;28086;-73
2021/04/01 01:00:31;;;;;;;5.47;3.80;;;10.30;99.00;;;;;;483104;245;28120;-73
2021/04/01 01:02:30;;;;;;;7.20;3.30;;;10.30;99.20;;;;;;483044;246;28131;-73
2021/04/01 01:04:31;;;;;;;4.70;2.97;;;10.30;99.10;;;;;;477854;249;28183;-73
2021/04/01 01:06:32;;;;;;;15.03;3.30;;;10.30;99.20;;;;;;474934;249;28078;-73
2021/04/01 01:08:34;;;;;;;13.70;3.60;;;10.20;99.60;;;;;;477893;249;27738;-73
2021/04/01 01:10:35;;;;;;;7.77;3.43;;;10.20;99.60;;;;;;475341;250;28118;-73
2021/04/01 01:12:36;;;;;;;5.60;3.67;;;10.20;99.80;;;;;;477811;248;28609;-73
2021/04/01 01:14:37;;;;;;;4.50;3.30;;;10.20;99.30;;;;;;474877;249;28261;-73
2021/04/01 01:16:39;;;;;;;7.60;2.97;;;10.20;99.50;;;;;;477776;249;28502;-73
2021/04/01 01:18:40;;;;;;;6.50;3.37;;;10.20;99.80;;;;;;475316;250;27921;-73
2021/04/01 01:20:41;;;;;;;7.63;3.97;;;10.20;99.60;;;;;;477728;248;28227;-73
2021/04/01 01:22:42;;;;;;;4.90;3.40;;;10.20;99.50;;;;;;474787;249;28245;-73
2021/04/01 01:24:44;;;;;;;5.77;3.30;;;10.20;99.50;;;;;;477749;249;28361;-73
2021/04/01 01:26:45;;;;;;;6.00;3.60;;;10.20;99.40;;;;;;475262;250;27998;-73
2021/04/01 01:28:46;;;;;;;6.70;3.67;;;10.20;99.80;;;;;;477732;246;28372;-73
2021/04/01 01:30:47;;;;;;;5.63;3.20;;;10.20;99.90;;;;;;474758;249;28106;-73
2021/04/01 01:32:56;;;;;;;5.63;3.30;;;10.20;99.90;;;;;;477738;249;28212;-73
2021/04/01 01:34:50;;;;;;;6.40;3.60;;;10.10;99.90;;;;;;482602;246;28110;-73
2021/04/01 01:36:51;;;;;;;4.40;3.60;;;10.10;99.90;;;;;;477649;249;29311;-73
2021/04/01 01:38:52;;;;;;;7.40;3.30;;;10.10;99.90;;;;;;474784;249;28716;-73
2021/04/01 01:40:54;;;;;;;5.27;3.93;;;10.10;99.90;;;;;;477738;249;28516;-73
2021/04/01 01:42:55;;;;;;;6.17;3.67;;;10.10;99.90;;;;;;475227;250;28129;-73
2021/04/01 01:44:56;;;;;;;10.10;3.63;;;10.10;99.90;;;;;;477708;249;27779;-73
2021/04/01 01:46:57;;;;;;;5.97;3.67;;;10.00;99.90;;;;;;474811;249;28016;-73
2021/04/01 01:48:59;;;;;;;9.03;3.93;;;10.00;99.90;;;;;;477749;249;28261;-73
2021/04/01 01:51:02;;;;;;;5.53;3.17;;;10.00;99.90;;;;;;475254;250;27943;-73
2021/04/01 01:53:01;;;;;;;9.40;3.80;;;10.00;99.90;;;;;;482992;245;28108;-73
2021/04/01 01:55:02;;;;;;;8.97;3.37;;;10.00;99.90;;;;;;477770;243;28161;-73
2021/04/01 01:57:04;;;;;;;8.47;3.30;;;10.00;99.90;;;;;;474935;249;28001;-73
2021/04/01 01:59:05;;;;;;;9.30;3.50;;;10.00;99.90;;;;;;477779;249;27953;-72
2021/04/01 02:01:06;;;;;;;9.33;3.50;;;10.00;99.90;;;;;;475271;250;28262;-73
2021/04/01 02:03:08;;;;;;;8.30;3.20;;;10.00;99.90;;;;;;477760;248;27966;-73
2021/04/01 02:05:09;;;;;;;7.50;3.83;;;10.00;99.90;;;;;;474837;249;28564;-73
2021/04/01 02:07:10;;;;;;;5.20;3.07;;;10.00;99.90;;;;;;477811;249;28058;-73
2021/04/01 02:09:11;;;;;;;10.20;3.60;;;10.00;99.90;;;;;;475280;250;28491;-73
2021/04/01 02:11:12;;;;;;;9.00;3.33;;;10.00;99.90;;;;;;477768;248;28146;-73
2021/04/01 02:13:14;;;;;;;11.10;3.83;;;10.00;99.90;;;;;;474872;249;28083;-73
2021/04/01 02:15:15;;;;;;;3.80;3.30;;;9.90;99.90;;;;;;477871;249;28105;-73
2021/04/01 02:17:22;;;;;;;6.47;3.40;;;9.90;99.90;;;;;;475414;250;27863;-73
2021/04/01 02:19:17;;;;;;;5.47;3.40;;;9.90;99.90;;;;;;482952;246;27843;-73
2021/04/01 02:21:21;;;;;;;8.80;3.43;;;9.90;99.90;;;;;;477924;246;28294;-74
2021/04/01 02:23:20;;;;;;;3.77;3.37;;;9.80;99.90;;;;;;483138;246;27943;-73
2021/04/01 02:25:21;;;;;;;3.90;3.00;;;9.80;99.90;;;;;;477931;249;27909;-73
2021/04/01 02:27:22;;;;;;;5.83;3.30;;;9.80;99.90;;;;;;474976;249;28476;-73
2021/04/01 02:29:24;;;;;;;4.23;3.57;;;9.70;99.90;;;;;;477794;249;28387;-73
2021/04/01 02:31:25;;;;;;;5.20;3.30;;;9.70;99.90;;;;;;475291;250;28402;-73
2021/04/01 02:33:26;;;;;;;6.33;3.30;;;9.70;99.90;;;;;;477722;248;27987;-73
2021/04/01 02:35:27;;;;;;;5.30;3.43;;;9.80;99.90;;;;;;474816;250;28482;-73
2021/04/01 02:37:29;;;;;;;13.23;3.43;;;9.80;99.90;;;;;;477797;249;27968;-73
2021/04/01 02:39:30;;;;;;;5.43;2.93;;;9.80;99.90;;;;;;475275;250;27763;-73
2021/04/01 02:41:31;;;;;;;6.80;3.23;;;9.70;99.90;;;;;;477815;248;27887;-73
2021/04/01 02:43:32;;;;;;;5.17;3.10;;;9.70;99.90;;;;;;474893;249;27847;-73
2021/04/01 02:45:34;;;;;;;4.67;3.20;;;9.70;99.90;;;;;;477908;249;28136;-73
2021/04/01 02:47:35;;;;;;;5.20;3.33;;;9.70;99.90;;;;;;475386;250;28009;-73
2021/04/01 02:49:36;;;;;;;4.50;3.23;;;9.70;99.90;;;;;;477894;248;28042;-73
2021/04/01 02:51:37;;;;;;;9.50;3.50;;;9.70;99.90;;;;;;474962;249;28020;-73
2021/04/01 02:53:39;;;;;;;8.10;3.37;;;9.70;99.90;;;;;;477957;249;27988;-73
2021/04/01 02:55:40;;;;;;;12.03;3.40;;;9.70;99.90;;;;;;475403;250;27883;-73
2021/04/01 02:57:41;;;;;;;9.80;3.33;;;9.70;99.90;;;;;;477861;248;28118;-73
2021/04/01 02:59:42;;;;;;;4.10;3.27;;;9.70;99.90;;;;;;474685;249;28055;-73
2021/04/01 03:01:44;;;;;;;5.00;3.80;;;9.70;99.90;;;;;;477619;249;28086;-73
2021/04/01 03:03:46;;;;;;;6.30;3.40;;;9.70;99.90;;;;;;475097;250;28355;-73
2021/04/01 03:05:46;;;;;;;5.73;3.40;;;9.70;99.90;;;;;;482894;246;28639;-73
2021/04/01 03:07:47;;;;;;;8.30;3.60;;;9.70;99.90;;;;;;477518;249;28470;-73
2021/04/01 03:09:49;;;;;;;7.20;3.63;;;9.70;99.90;;;;;;474800;249;28484;-73
2021/04/01 03:11:50;;;;;;;8.43;3.60;;;9.80;99.90;;;;;;477756;249;28474;-73
2021/04/01 03:13:51;;;;;;;4.83;3.13;;;9.80;99.90;;;;;;475246;250;28163;-73
2021/04/01 03:15:52;;;;;;;5.90;3.50;;;9.70;99.90;;;;;;477748;248;27891;-73
2021/04/01 03:17:54;;;;;;;6.37;3.13;;;9.70;99.90;;;;;;474795;249;27902;-73
2021/04/01 03:19:55;;;;;;;7.37;3.40;;;9.70;99.90;;;;;;477745;249;27878;-73
2021/04/01 03:21:56;;;;;;;12.80;4.67;;;9.60;99.90;;;;;;475250;250;27978;-73
2021/04/01 03:23:57;;;;;;;6.87;3.73;;;9.70;99.90;;;;;;477768;248;27967;-74
2021/04/01 03:25:59;;;;;;;10.93;4.87;;;9.60;99.90;;;;;;474815;249;28069;-73
2021/04/01 03:28:01;;;;;;;10.87;5.03;;;9.50;99.90;;;;;;477723;249;27919;-73
2021/04/01 03:30:05;;;;;;;8.90;5.10;;;9.50;99.90;;;;;;482996;246;28051;-73
2021/04/01 03:32:05;;;;;;;16.43;6.90;;;9.50;99.90;;;;;;482670;246;28195;-73
2021/04/01 03:34:06;;;;;;;16.50;6.93;;;9.50;99.90;;;;;;477716;249;28470;-73
2021/04/01 03:36:08;;;;;;;12.93;6.07;;;9.50;99.90;;;;;;474994;249;28599;-72
2021/04/01 03:38:10;;;;;;;10.60;6.20;;;9.50;99.90;;;;;;477967;249;27809;-73
2021/04/01 03:40:10;;;;;;;9.80;5.03;;;9.50;99.90;;;;;;483159;246;27998;-73
2021/04/01 03:42:11;;;;;;;10.87;4.77;;;9.50;99.90;;;;;;477919;249;28309;-73
2021/04/01 03:44:13;;;;;;;11.33;5.33;;;9.50;99.90;;;;;;474985;249;28002;-73
2021/04/01 03:46:14;;;;;;;9.73;4.93;;;9.40;99.90;;;;;;477912;249;28056;-73
2021/04/01 03:48:15;;;;;;;11.83;5.07;;;9.50;99.90;;;;;;475343;250;27959;-73
2021/04/01 03:50:16;;;;;;;10.70;4.70;;;9.40;99.90;;;;;;477781;248;27984;-73
2021/04/01 03:52:18;;;;;;;8.30;4.80;;;9.40;99.90;;;;;;474775;249;28358;-73
2021/04/01 03:54:19;;;;;;;7.83;4.90;;;9.40;99.90;;;;;;477762;249;27665;-73
2021/04/01 03:56:21;;;;;;;5.53;3.57;;;9.50;99.90;;;;;;475287;250;27545;-73
2021/04/01 04:00:43;;;;;;;7.00;4.30;;;9.40;99.90;;;;;;474689;250;28355;-73
2021/04/01 04:02:54;;;;;;;8.53;4.00;;;9.50;99.90;;;;;;482954;246;28308;-73
2021/04/01 04:07:30;;;;;;;7.50;4.53;;;9.50;99.90;;;;;;477699;249;27926;-73
2021/04/01 04:11:27;;;;;;;5.80;3.80;;;9.50;99.90;;;;;;480264;246;27907;-73
2021/04/01 04:15:26;;;;;;;19.47;4.67;;;9.50;99.90;;;;;;477701;249;28013;-73
2021/04/01 04:17:27;;;;;;;6.23;3.30;;;9.50;99.90;;;;;;474777;249;28194;-73
2021/04/01 04:19:28;;;;;;;12.47;3.67;;;9.50;99.90;;;;;;477734;249;28025;-73
2021/04/01 04:21:29;;;;;;;6.20;3.57;;;9.40;99.90;;;;;;475222;250;28010;-73
2021/04/01 04:23:31;;;;;;;7.40;3.40;;;9.30;99.90;;;;;;477703;248;27929;-73
2021/04/01 04:25:33;;;;;;;4.10;3.50;;;9.40;99.90;;;;;;474780;249;28090;-73
2021/04/01 04:29:59;;;;;;;13.77;4.30;;;9.40;99.90;;;;;;478048;249;28008;-73
2021/04/01 04:31:54;;;;;;;7.83;3.70;;;9.50;99.90;;;;;;482983;246;28054;-73
2021/04/01 04:33:55;;;;;;;6.00;3.87;;;9.50;99.90;;;;;;477746;249;28026;-72
2021/04/01 04:35:56;;;;;;;5.03;3.60;;;9.50;99.90;;;;;;474829;249;27968;-73
2021/04/01 04:37:59;;;;;;;5.67;3.87;;;9.50;99.90;;;;;;477794;249;27688;-73
2021/04/01 04:39:59;;;;;;;7.40;3.50;;;9.40;99.90;;;;;;482975;246;27617;-73
2021/04/01 04:42:00;;;;;;;9.53;4.80;;;9.40;99.90;;;;;;477727;249;27948;-73
2021/04/01 04:44:01;;;;;;;11.53;4.30;;;9.40;99.90;;;;;;474818;249;27646;-73
2021/04/01 04:46:02;;;;;;;7.77;4.13;;;9.30;99.90;;;;;;477641;247;28209;-73
2021/04/01 04:48:04;;;;;;;6.77;3.73;;;9.30;99.90;;;;;;475286;250;28210;-73
2021/04/01 04:50:05;;;;;;;11.83;4.10;;;9.20;99.90;;;;;;477559;248;28431;-73
2021/04/01 04:52:06;;;;;;;5.77;4.10;;;9.20;99.90;;;;;;474661;249;28340;-73
2021/04/01 04:54:07;;;;;;;6.07;4.10;;;9.20;99.90;;;;;;477371;249;28452;-73
2021/04/01 04:56:12;;;;;;;6.27;3.90;;;9.20;99.90;;;;;;474681;250;28723;-73
2021/04/01 05:04:45;;;;;;;9.00;4.60;;;9.20;99.90;;;;;;474869;250;28026;-73
2021/04/01 05:06:55;;;;;;;5.30;3.70;;;9.20;99.90;;;;;;483005;246;27752;-72
2021/04/01 05:08:56;;;;;;;5.70;3.73;;;9.20;99.90;;;;;;483183;246;27963;-72
2021/04/01 05:10:57;;;;;;;6.40;4.00;;;9.20;99.90;;;;;;477901;249;28009;-73
2021/04/01 05:13:07;;;;;;;7.57;4.50;;;9.20;99.90;;;;;;474982;249;28060;-72
2021/04/01 05:14:59;;;;;;;7.40;3.53;;;9.20;99.90;;;;;;482753;246;27979;-73
2021/04/01 05:17:00;;;;;;;6.27;4.13;;;9.20;99.90;;;;;;477800;249;28120;-73
2021/04/01 05:19:03;;;;;;;4.27;3.40;;;9.20;99.90;;;;;;474832;249;27906;-73
2021/04/01 05:21:05;;;;;;;6.90;3.60;;;9.20;99.90;;;;;;482958;246;28110;-73
2021/04/01 05:23:09;;;;;;;4.90;3.93;;;9.20;99.90;;;;;;482963;246;27530;-73
2021/04/01 05:25:06;;;;;;;8.40;4.10;;;9.30;99.90;;;;;;482798;246;28081;-73
2021/04/01 05:27:12;;;;;;;7.07;3.83;;;9.30;99.90;;;;;;483051;246;27970;-73
2021/04/01 05:29:11;;;;;;;10.23;4.13;;;9.40;99.90;;;;;;482704;246;27739;-73
2021/04/01 05:31:11;;;;;;;5.37;4.00;;;9.40;99.90;;;;;;482814;246;28496;-73
2021/04/01 05:33:11;;;;;;;7.03;3.53;;;9.50;99.90;;;;;;482886;246;28277;-73
2021/04/01 05:35:15;;;;;;;8.50;3.47;;;9.50;99.90;;;;;;483313;246;28037;-73
2021/04/01 05:37:16;;;;;;;6.93;3.93;;;9.40;99.90;;;;;;477750;249;28025;-73
2021/04/01 05:39:19;;;;;;;6.93;3.80;;;9.40;99.90;;;;;;474792;249;28042;-73
2021/04/01 05:41:20;;;;;;;6.20;3.80;;;9.40;99.90;;;;;;482925;246;28182;-73
2021/04/01 05:43:22;;;;;;;8.00;4.27;;;9.50;99.90;;;;;;482922;246;27871;-73
2021/04/01 05:45:27;;;;;;;6.47;3.80;;;9.50;99.90;;;;;;482913;246;28453;-73
2021/04/01 05:47:38;;;;;;;11.80;4.20;;;9.60;99.90;;;;;;482917;246;27643;-73
2021/04/01 05:49:34;;;;;;;6.63;3.80;;;9.60;99.90;;;;;;482651;246;28419;-73
2021/04/01 05:51:47;;;;;;;6.97;4.00;;;9.70;99.90;;;;;;482821;246;28070;-73
2021/04/01 05:54:18;;;;;;;17.73;5.40;;;9.70;99.90;;;;;;482340;246;28147;-73
2021/04/01 05:58:06;;;;;;;11.57;4.20;;;9.80;99.90;;;;;;477734;249;28411;-73
2021/04/01 06:00:33;;;;;;;7.20;4.40;;;9.80;99.90;;;;;;482610;246;28555;-73
2021/04/01 06:02:25;;;;;;;10.73;3.93;;;9.90;99.90;;;;;;482342;246;28458;-73
2021/04/01 06:04:30;;;;;;;11.70;4.30;;;10.00;99.90;;;;;;482762;246;27742;-73
2021/04/01 06:06:44;;;;;;;12.43;3.90;;;10.10;99.90;;;;;;482876;246;28729;-73
2021/04/01 06:08:42;;;;;;;5.50;4.33;;;10.20;99.90;;;;;;482682;246;27961;-73
2021/04/01 06:10:40;;;;;;;9.80;4.00;;;10.40;99.90;;;;;;482882;246;27960;-73
2021/04/01 06:12:40;;;;;;;6.30;3.80;;;10.50;99.90;;;;;;483016;246;28048;-73
2021/04/01 06:14:42;;;;;;;9.43;4.30;;;10.70;99.90;;;;;;477749;249;28274;-73
2021/04/01 06:16:43;;;;;;;7.90;4.27;;;10.90;99.90;;;;;;474788;249;28190;-73
2021/04/01 06:18:44;;;;;;;5.03;4.00;;;11.10;99.90;;;;;;477844;249;28213;-73
2021/04/01 06:20:46;;;;;;;8.13;4.27;;;11.30;99.90;;;;;;475110;250;28358;-73
2021/04/01 06:22:47;;;;;;;8.87;5.37;;;11.40;99.90;;;;;;477326;248;28210;-73
2021/04/01 06:24:48;;;;;;;8.07;4.60;;;11.60;99.90;;;;;;474847;249;28103;-73
2021/04/01 06:26:49;;;;;;;8.63;4.03;;;11.70;99.90;;;;;;477903;249;28584;-73
2021/04/01 06:28:55;;;;;;;8.87;4.90;;;11.70;99.90;;;;;;475337;250;28676;-73
2021/04/01 06:30:53;;;;;;;6.70;4.50;;;11.60;99.90;;;;;;482936;246;28792;-73
2021/04/01 06:32:54;;;;;;;5.90;3.77;;;11.60;99.90;;;;;;483097;246;28707;-73
2021/04/01 06:34:54;;;;;;;10.50;4.10;;;11.70;99.90;;;;;;483110;246;28685;-73
2021/04/01 06:36:57;;;;;;;11.93;4.77;;;11.70;99.90;;;;;;477781;249;28471;-73
2021/04/01 06:38:57;;;;;;;11.93;5.30;;;11.70;99.90;;;;;;483005;245;28275;-73
2021/04/01 06:40:58;;;;;;;7.50;5.10;;;11.80;99.90;;;;;;477756;249;28475;-73
2021/04/01 06:42:59;;;;;;;9.37;5.20;;;11.90;99.90;;;;;;474823;249;28317;-73
2021/04/01 06:45:00;;;;;;;7.33;3.77;;;11.90;99.90;;;;;;477696;249;28899;-74
2021/04/01 06:47:02;;;;;;;6.70;4.37;;;11.90;99.90;;;;;;475146;250;28171;-73
2021/04/01 06:49:53;;;;;;;5.57;3.80;;;;;;;;;;477761;248;29035;-73
2021/04/01 06:51:09;;;;;;;4.60;3.60;;;12.00;99.90;;;;;;466669;250;26652;-73
2021/04/01 06:53:16;;;;;;;8.73;4.13;;;12.20;99.90;;;;;;483007;246;28692;-74
2021/04/01 06:55:25;;;;;;;7.17;4.43;;;12.30;99.90;;;;;;482720;246;28998;-73
2021/04/01 06:57:27;;;;;;;8.73;4.30;;;12.30;99.90;;;;;;482689;246;28276;-73
2021/04/01 07:01:55;;;;;;;12.00;4.33;;;12.40;99.90;;;;;;477730;249;28551;-73
2021/04/01 07:03:49;;;;;;;8.60;4.00;;;12.60;99.90;;;;;;482675;246;28821;-74
2021/04/01 07:05:55;;;;;;;6.00;4.00;;;12.70;99.90;;;;;;477719;249;28360;-73
2021/04/01 07:07:58;;;;;;;7.87;4.33;;;12.70;99.90;;;;;;482940;246;28347;-73
2021/04/01 07:10:24;;;;;;;4.80;3.93;;;12.70;99.90;;;;;;482795;246;28351;-74
2021/04/01 07:12:20;;;;;;;7.10;4.17;;;12.80;99.90;;;;;;482580;246;28534;-74
2021/04/01 07:14:17;;;;;;;10.40;4.57;;;12.80;99.90;;;;;;482818;246;28200;-74
2021/04/01 07:16:34;;;;;;;10.90;4.57;;;12.90;99.90;;;;;;477715;249;28138;-73
2021/04/01 07:18:31;;;;;;;5.60;3.90;;;12.90;99.90;;;;;;482465;246;28327;-73
2021/04/01 07:22:57;;;;;;;4.30;3.70;;;13.10;99.90;;;;;;477779;249;26638;-73
2021/04/01 07:32:08;;;;;;;7.70;4.50;;;13.50;99.90;;;;;;474716;250;28365;-73
2021/04/01 07:35:55;;;;;;;5.10;4.10;;;13.60;99.90;;;;;;477679;249;28280;-73
2021/04/01 07:46:51;;;;;;;5.97;4.43;;;13.70;99.90;;;;;;475371;250;28418;-74
2021/04/01 07:48:57;;;;;;;6.20;5.03;;;13.70;99.90;;;;;;483175;245;28310;-73
2021/04/01 07:50:52;;;;;;;6.80;4.80;;;13.80;99.90;;;;;;482942;246;29957;-74
2021/04/01 07:52:54;;;;;;;6.47;4.20;;;13.80;99.90;;;;;;477877;249;28868;-73
2021/04/01 07:55:23;;;;;;;8.07;4.10;;;13.80;99.90;;;;;;474925;249;29089;-74
2021/04/01 07:57:06;;;;;;;4.67;4.13;;;13.80;99.90;;;;;;482119;246;28985;-73
2021/04/01 07:59:18;;;;;;;6.47;4.20;;;13.90;99.90;;;;;;482501;246;28265;-73
2021/04/01 08:01:16;;;;;;;9.73;4.57;;;13.90;99.90;;;;;;481951;246;28936;-73
2021/04/01 08:03:21;;;;;;;12.87;4.47;;;14.00;99.90;;;;;;482033;246;28535;-74
2021/04/01 08:05:09;;;;;;;4.93;3.77;;;14.20;99.90;;;;;;481881;246;29388;-73
2021/04/01 08:07:11;;;;;;;7.50;4.10;;;14.20;99.90;;;;;;477829;249;28888;-73
2021/04/01 08:09:13;;;;;;;8.30;4.37;;;14.30;99.90;;;;;;483145;245;28499;-73
2021/04/01 08:11:13;;;;;;;7.90;3.90;;;14.40;99.90;;;;;;483104;246;28935;-74
2021/04/01 08:13:19;;;;;;;8.83;5.30;;;14.40;99.90;;;;;;477898;249;28892;-74
2021/04/01 08:15:22;;;;;;;11.30;4.63;;;14.50;99.90;;;;;;483073;245;29320;-74
2021/04/01 08:17:22;;;;;;;4.67;4.00;;;14.50;99.90;;;;;;482975;246;28956;-73
2021/04/01 08:19:24;;;;;;;9.37;4.90;;;14.60;99.90;;;;;;483081;246;28903;-74
2021/04/01 08:21:23;;;;;;;9.13;4.50;;;14.70;99.90;;;;;;482887;246;28877;-74
2021/04/01 08:23:29;;;;;;;11.70;4.70;;;14.70;99.90;;;;;;477247;247;28953;-73
2021/04/01 08:25:28;;;;;;;5.60;4.53;;;14.80;99.90;;;;;;482961;246;28948;-74
2021/04/01 08:27:45;;;;;;;6.80;4.80;;;14.80;99.90;;;;;;477824;249;28940;-74
2021/04/01 08:30:25;;;;;;;7.37;4.37;;;14.80;99.90;;;;;;482686;246;28525;-74
2021/04/01 08:36:11;;;;;;;5.70;4.43;;;15.00;99.90;;;;;;474802;249;28909;-74
2021/04/01 08:38:13;;;;;;;8.97;5.00;;;15.00;99.90;;;;;;477737;249;28890;-73
2021/04/01 08:40:13;;;;;;;6.60;4.10;;;15.00;99.90;;;;;;475266;250;28778;-74
2021/04/01 08:42:15;;;;;;;6.50;4.50;;;15.10;99.90;;;;;;477736;248;28779;-74
2021/04/01 08:44:16;;;;;;;5.23;4.17;;;15.10;99.90;;;;;;474808;249;29347;-73
2021/04/01 08:46:17;;;;;;;7.87;4.70;;;15.20;99.90;;;;;;477751;243;28959;-74
2021/04/01 08:48:18;;;;;;;7.80;5.30;;;15.20;99.90;;;;;;475254;250;30080;-74
2021/04/01 08:50:29;;;;;;;10.00;4.37;;;15.30;99.90;;;;;;477750;248;29146;-73
2021/04/01 08:52:30;;;;;;;6.87;4.50;;;15.40;99.90;;;;;;474843;249;28854;-73
2021/04/01 08:54:31;;;;;;;6.17;4.27;;;15.50;99.90;;;;;;477749;249;28969;-73
2021/04/01 08:56:33;;;;;;;8.20;4.03;;;15.60;99.90;;;;;;475212;250;28782;-74
2021/04/01 08:58:34;;;;;;;5.37;3.80;;;15.70;99.90;;;;;;477824;248;28875;-73
2021/04/01 09:00:35;;;;;;;9.17;4.93;;;15.70;99.90;;;;;;474954;249;29382;-74
2021/04/01 09:02:36;;;;;;;7.57;4.30;;;15.80;99.90;;;;;;477887;249;28921;-74
2021/04/01 09:04:38;;;;;;;13.70;4.43;;;15.90;99.90;;;;;;475341;250;29333;-74
2021/04/01 09:06:39;;;;;;;7.63;4.33;;;15.90;99.90;;;;;;477795;248;28892;-74
2021/04/01 09:08:40;;;;;;;17.33;4.90;;;16.00;99.90;;;;;;474854;249;29306;-74
2021/04/01 09:10:41;;;;;;;7.53;4.30;;;16.00;99.90;;;;;;477775;249;28902;-74
2021/04/01 09:12:45;;;;;;;7.17;3.77;;;16.10;99.90;;;;;;475299;250;28726;-74
2021/04/01 09:14:49;;;;;;;8.70;3.97;;;16.20;99.90;;;;;;482943;246;28849;-74
2021/04/01 09:16:52;;;;;;;7.90;4.30;;;16.20;99.90;;;;;;482899;246;28862;-74
2021/04/01 09:18:50;;;;;;;8.33;4.23;;;16.20;99.90;;;;;;482900;246;28937;-73
2021/04/01 09:20:50;;;;;;;7.97;4.57;;;16.20;99.90;;;;;;483105;246;29370;-74
2021/04/01 09:22:52;;;;;;;8.80;4.50;;;16.30;99.90;;;;;;477825;249;28788;-74
2021/04/01 09:24:53;;;;;;;7.10;4.13;;;16.40;99.90;;;;;;474992;249;30024;-74
2021/04/01 09:26:54;;;;;;;5.33;4.43;;;16.50;99.80;;;;;;477879;249;29331;-74
2021/04/01 09:28:55;;;;;;;9.20;4.60;;;16.60;99.90;;;;;;475355;250;29355;-74
2021/04/01 09:30:57;;;;;;;12.60;5.17;;;16.60;99.90;;;;;;477823;248;28768;-74
2021/04/01 09:32:58;;;;;;;8.27;4.80;;;16.50;99.90;;;;;;474878;249;28901;-74
2021/04/01 09:34:59;;;;;;;6.47;4.53;;;16.60;99.90;;;;;;477749;243;29072;-74
2021/04/01 09:37:00;;;;;;;6.70;4.47;;;16.70;99.90;;;;;;475188;250;28746;-74
2021/04/01 09:39:48;;;;;;;5.30;4.47;;;16.80;99.60;;;;;;477773;248;28891;-74
2021/04/01 09:41:03;;;;;;;7.43;4.10;;;16.80;99.20;;;;;;475895;246;28789;-74
2021/04/01 09:43:04;;;;;;;6.23;3.73;;;16.90;98.90;;;;;;477725;249;28882;-74
2021/04/01 09:45:05;;;;;;;7.50;3.77;;;16.90;99.70;;;;;;474816;249;30467;-74
2021/04/01 09:47:07;;;;;;;4.93;4.00;;;17.00;99.90;;;;;;477760;249;29419;-74
2021/04/01 09:49:08;;;;;;;5.33;4.00;;;17.10;99.90;;;;;;475282;250;29362;-74
2021/04/01 09:51:09;;;;;;;4.90;3.80;;;17.20;98.60;;;;;;477753;248;28780;-74
2021/04/01 09:53:13;;;;;;;8.60;4.03;;;17.30;98.00;;;;;;474816;249;28869;-74
2021/04/01 09:55:14;;;;;;;5.87;4.03;;;17.30;97.60;;;;;;477771;249;28889;-74
2021/04/01 09:57:16;;;;;;;6.90;3.80;;;17.30;97.50;;;;;;475237;250;28800;-74
2021/04/01 09:59:17;;;;;;;7.33;3.80;;;17.40;97.30;;;;;;477740;248;28811;-73
2021/04/01 10:01:33;;;;;;;6.27;3.63;;;17.40;96.20;;;;;;474850;249;29401;-74
2021/04/01 10:03:32;;;;;;;6.37;4.20;;;17.50;95.80;;;;;;483050;246;28847;-74
2021/04/01 10:05:33;;;;;;;13.10;3.97;;;17.60;94.40;;;;;;477807;249;28851;-74
2021/04/01 10:07:37;;;;;;;6.00;4.10;;;17.80;94.50;;;;;;474896;249;29226;-75
2021/04/01 10:09:36;;;;;;;6.70;4.10;;;17.80;94.70;;;;;;483085;246;28852;-74
2021/04/01 10:11:37;;;;;;;8.00;4.10;;;17.90;95.20;;;;;;477868;249;28881;-74
2021/04/01 10:13:38;;;;;;;7.53;3.90;;;18.10;94.50;;;;;;474959;249;28884;-74
2021/04/01 10:15:40;;;;;;;11.53;4.30;;;18.20;95.40;;;;;;477904;249;28951;-74
2021/04/01 10:17:41;;;;;;;5.90;3.80;;;18.10;93.40;;;;;;474920;250;28868;-74
2021/04/01 10:19:42;;;;;;;6.30;3.70;;;18.20;93.50;;;;;;476996;248;29382;-74
2021/04/01 10:21:43;;;;;;;6.80;3.97;;;18.20;92.40;;;;;;474648;249;29432;-74
2021/04/01 10:23:44;;;;;;;7.10;3.70;;;18.20;92.90;;;;;;477683;249;29353;-74
2021/04/01 10:25:54;;;;;;;8.43;4.87;;;18.40;92.00;;;;;;475260;250;28793;-74
2021/04/01 10:28:02;;;;;;;7.10;4.60;;;18.40;93.80;;;;;;482730;246;28847;-74
2021/04/01 10:29:58;;;;;;;8.17;4.53;;;18.40;92.60;;;;;;482682;246;28836;-74
2021/04/01 10:31:58;;;;;;;7.53;4.40;;;18.70;93.50;;;;;;482955;246;29445;-74
2021/04/01 10:33:59;;;;;;;11.97;4.93;;;18.60;91.20;;;;;;477749;249;28937;-74
2021/04/01 10:36:00;;;;;;;12.00;5.07;;;18.60;91.30;;;;;;474780;249;29360;-74
2021/04/01 10:38:02;;;;;;;10.83;5.03;;;18.60;90.00;;;;;;477765;249;28865;-74
2021/04/01 10:40:03;;;;;;;12.30;4.93;;;18.60;88.20;;;;;;475276;250;28744;-74
2021/04/01 10:42:04;;;;;;;10.63;5.20;;;18.70;89.20;;;;;;477772;248;28899;-74
2021/04/01 10:44:05;;;;;;;8.67;4.90;;;18.70;86.50;;;;;;474888;249;28978;-74
2021/04/01 10:46:07;;;;;;;13.67;7.30;;;18.80;88.50;;;;;;477850;249;28999;-74
2021/04/01 10:48:08;;;;;;;11.03;6.10;;;18.80;85.60;;;;;;475373;250;28799;-74
2021/04/01 10:50:09;;;;;;;9.67;6.13;;;19.00;88.10;;;;;;477831;248;29315;-74
2021/04/01 10:52:10;;;;;;;10.27;6.03;;;19.00;84.60;;;;;;473470;251;29291;-74
2021/04/01 10:54:12;;;;;;;13.90;6.47;;;18.90;84.20;;;;;;482670;246;29516;-75
2021/04/01 10:56:13;;;;;;;8.63;5.50;;;19.00;84.80;;;;;;474459;250;28868;-74
2021/04/01 10:58:14;;;;;;;7.10;5.87;;;19.00;84.40;;;;;;476091;249;28885;-74
2021/04/01 11:00:15;;;;;;;11.23;7.60;;;19.10;81.00;;;;;;476949;249;28922;-74
2021/04/01 11:02:17;;;;;;;16.13;7.87;;;19.10;81.90;;;;;;476917;249;28981;-74
2021/04/01 11:04:18;;;;;;;9.17;6.80;;;19.30;76.50;;;;;;476899;248;28895;-74
2021/04/01 11:06:19;;;;;;;10.27;7.23;;;19.40;81.10;;;;;;476831;249;28916;-74
2021/04/01 11:08:21;;;;;;;11.20;7.50;;;19.30;81.50;;;;;;476806;248;28972;-75
2021/04/01 11:10:22;;;;;;;13.83;7.97;;;19.20;79.00;;;;;;476798;249;29317;-74
2021/04/01 11:12:23;;;;;;;13.33;7.47;;;19.30;77.00;;;;;;476792;248;28901;-74
2021/04/01 11:14:24;;;;;;;14.77;7.57;;;19.30;76.80;;;;;;476783;248;29386;-74
2021/04/01 11:16:26;;;;;;;11.67;7.33;;;19.30;78.10;;;;;;476780;248;28779;-74
2021/04/01 11:18:27;;;;;;;11.30;8.00;;;19.30;76.50;;;;;;476748;248;28904;-74
2021/04/01 11:20:28;;;;;;;12.70;6.77;;;19.60;72.10;;;;;;476745;248;28843;-74
2021/04/01 11:22:29;;;;;;;22.30;7.53;;;19.70;72.40;;;;;;476765;248;28821;-74